sensor_id;sensor_type;location;lat;lon;timestamp;temperature;humidity
67188;DHT22;54117;53.532;49.426;2022-09-09T00:01:54;10.40;97.90
67188;DHT22;54117;53.532;49.426;2022-09-09T00:04:32;10.40;97.90
67188;DHT22;54117;53.532;49.426;2022-09-09T00:09:40;10.50;97.80
67188;DHT22;54117;53.532;49.426;2022-09-09T00:12:15;10.40;97.80
67188;DHT22;54117;53.532;49.426;2022-09-09T00:15:14;10.50;97.80
67188;DHT22;54117;53.532;49.426;2022-09-09T00:17:55;10.50;97.80
67188;DHT22;54117;53.532;49.426;2022-09-09T00:25:37;10.50;97.80
67188;DHT22;54117;53.532;49.426;2022-09-09T00:28:17;10.50;97.80
67188;DHT22;54117;53.532;49.426;2022-09-09T00:30:45;10.50;97.80
67188;DHT22;54117;53.532;49.426;2022-09-09T00:33:22;10.60;97.80
67188;DHT22;54117;53.532;49.426;2022-09-09T00:35:54;10.60;97.90
67188;DHT22;54117;53.532;49.426;2022-09-09T00:38:36;10.60;97.80
67188;DHT22;54117;53.532;49.426;2022-09-09T00:43:40;10.70;97.80
67188;DHT22;54117;53.532;49.426;2022-09-09T00:52:43;10.90;97.60
67188;DHT22;54117;53.532;49.426;2022-09-09T00:55:17;10.90;97.50
67188;DHT22;54117;53.532;49.426;2022-09-09T00:57:48;10.90;97.40
67188;DHT22;54117;53.532;49.426;2022-09-09T01:00:27;11.00;97.30
67188;DHT22;54117;53.532;49.426;2022-09-09T01:03:13;11.00;97.30
67188;DHT22;54117;53.532;49.426;2022-09-09T01:08:35;11.10;97.20
67188;DHT22;54117;53.532;49.426;2022-09-09T01:11:20;11.10;97.20
67188;DHT22;54117;53.532;49.426;2022-09-09T01:13:56;11.10;97.20
67188;DHT22;54117;53.532;49.426;2022-09-09T01:16:26;11.10;97.10
67188;DHT22;54117;53.532;49.426;2022-09-09T01:18:54;11.10;97.10
67188;DHT22;54117;53.532;49.426;2022-09-09T01:21:50;11.10;97.00
67188;DHT22;54117;53.532;49.426;2022-09-09T01:24:22;11.10;96.90
67188;DHT22;54117;53.532;49.426;2022-09-09T01:26:54;11.10;96.90
67188;DHT22;54117;53.532;49.426;2022-09-09T01:29:22;11.00;96.90
67188;DHT22;54117;53.532;49.426;2022-09-09T01:31:58;11.00;96.90
67188;DHT22;54117;53.532;49.426;2022-09-09T01:34:28;11.00;97.00
67188;DHT22;54117;53.532;49.426;2022-09-09T01:37:08;11.00;97.00
67188;DHT22;54117;53.532;49.426;2022-09-09T01:39:38;11.00;97.00
67188;DHT22;54117;53.532;49.426;2022-09-09T01:42:07;11.00;97.00
67188;DHT22;54117;53.532;49.426;2022-09-09T01:44:36;10.90;96.90
67188;DHT22;54117;53.532;49.426;2022-09-09T01:47:03;10.90;96.90
67188;DHT22;54117;53.532;49.426;2022-09-09T01:49:29;10.90;97.00
67188;DHT22;54117;53.532;49.426;2022-09-09T01:51:56;10.90;97.00
67188;DHT22;54117;53.532;49.426;2022-09-09T01:54:26;10.90;97.00
67188;DHT22;54117;53.532;49.426;2022-09-09T02:02:18;11.00;97.00
67188;DHT22;54117;53.532;49.426;2022-09-09T02:04:48;11.00;97.00
67188;DHT22;54117;53.532;49.426;2022-09-09T02:09:56;11.00;97.00
67188;DHT22;54117;53.532;49.426;2022-09-09T02:12:24;11.00;96.90
67188;DHT22;54117;53.532;49.426;2022-09-09T02:15:02;11.10;97.00
67188;DHT22;54117;53.532;49.426;2022-09-09T02:17:34;11.10;97.00
67188;DHT22;54117;53.532;49.426;2022-09-09T02:20:08;11.00;96.90
67188;DHT22;54117;53.532;49.426;2022-09-09T02:22:35;11.10;96.90
67188;DHT22;54117;53.532;49.426;2022-09-09T02:25:07;11.10;96.90
67188;DHT22;54117;53.532;49.426;2022-09-09T02:27:34;11.10;96.90
67188;DHT22;54117;53.532;49.426;2022-09-09T02:30:02;11.20;96.90
67188;DHT22;54117;53.532;49.426;2022-09-09T02:32:31;11.20;96.90
67188;DHT22;54117;53.532;49.426;2022-09-09T02:35:04;11.20;96.80
67188;DHT22;54117;53.532;49.426;2022-09-09T02:37:42;11.30;96.80
67188;DHT22;54117;53.532;49.426;2022-09-09T02:40:10;11.30;96.70
67188;DHT22;54117;53.532;49.426;2022-09-09T02:42:41;11.40;96.60
67188;DHT22;54117;53.532;49.426;2022-09-09T02:45:09;11.40;96.60
67188;DHT22;54117;53.532;49.426;2022-09-09T02:50:13;11.40;96.30
67188;DHT22;54117;53.532;49.426;2022-09-09T02:55:16;11.40;96.30
67188;DHT22;54117;53.532;49.426;2022-09-09T02:57:45;11.40;96.20
67188;DHT22;54117;53.532;49.426;2022-09-09T03:00:13;11.40;96.30
67188;DHT22;54117;53.532;49.426;2022-09-09T03:02:40;11.50;96.40
67188;DHT22;54117;53.532;49.426;2022-09-09T03:05:08;11.60;96.40
67188;DHT22;54117;53.532;49.426;2022-09-09T03:07:34;11.60;96.20
67188;DHT22;54117;53.532;49.426;2022-09-09T03:10:01;11.70;96.00
67188;DHT22;54117;53.532;49.426;2022-09-09T03:12:27;11.70;95.80
67188;DHT22;54117;53.532;49.426;2022-09-09T03:14:53;11.70;95.80
67188;DHT22;54117;53.532;49.426;2022-09-09T03:17:20;11.80;95.80
67188;DHT22;54117;53.532;49.426;2022-09-09T03:19:46;11.80;95.80
67188;DHT22;54117;53.532;49.426;2022-09-09T03:22:15;11.90;95.90
67188;DHT22;54117;53.532;49.426;2022-09-09T03:24:41;12.00;95.80
67188;DHT22;54117;53.532;49.426;2022-09-09T03:27:07;12.20;95.70
67188;DHT22;54117;53.532;49.426;2022-09-09T03:29:34;12.30;95.40
67188;DHT22;54117;53.532;49.426;2022-09-09T03:32:00;12.30;95.00
67188;DHT22;54117;53.532;49.426;2022-09-09T03:34:26;12.40;94.60
67188;DHT22;54117;53.532;49.426;2022-09-09T03:36:53;12.40;94.60
67188;DHT22;54117;53.532;49.426;2022-09-09T03:39:19;12.40;94.60
67188;DHT22;54117;53.532;49.426;2022-09-09T03:41:45;12.40;94.60
67188;DHT22;54117;53.532;49.426;2022-09-09T03:44:14;12.50;94.80
67188;DHT22;54117;53.532;49.426;2022-09-09T03:46:40;12.80;94.80
67188;DHT22;54117;53.532;49.426;2022-09-09T03:49:11;13.10;94.60
67188;DHT22;54117;53.532;49.426;2022-09-09T03:51:39;13.60;94.10
67188;DHT22;54117;53.532;49.426;2022-09-09T03:54:07;13.90;93.30
67188;DHT22;54117;53.532;49.426;2022-09-09T03:56:37;14.10;92.70
67188;DHT22;54117;53.532;49.426;2022-09-09T03:59:03;14.40;92.20
67188;DHT22;54117;53.532;49.426;2022-09-09T04:01:30;14.60;91.70
67188;DHT22;54117;53.532;49.426;2022-09-09T04:04:03;14.70;91.00
67188;DHT22;54117;53.532;49.426;2022-09-09T04:06:30;14.90;90.40
67188;DHT22;54117;53.532;49.426;2022-09-09T04:08:57;15.00;89.70
67188;DHT22;54117;53.532;49.426;2022-09-09T04:11:23;15.40;89.20
67188;DHT22;54117;53.532;49.426;2022-09-09T04:13:50;15.90;88.10
67188;DHT22;54117;53.532;49.426;2022-09-09T04:16:16;16.20;85.00
67188;DHT22;54117;53.532;49.426;2022-09-09T04:18:42;16.20;83.10
67188;DHT22;54117;53.532;49.426;2022-09-09T04:21:09;16.00;82.20
67188;DHT22;54117;53.532;49.426;2022-09-09T04:23:36;15.70;82.20
67188;DHT22;54117;53.532;49.426;2022-09-09T04:26:03;15.50;83.10
67188;DHT22;54117;53.532;49.426;2022-09-09T04:28:32;15.50;84.90
67188;DHT22;54117;53.532;49.426;2022-09-09T04:31:07;15.70;82.30
67188;DHT22;54117;53.532;49.426;2022-09-09T04:33:35;15.70;82.50
67188;DHT22;54117;53.532;49.426;2022-09-09T04:36:01;16.40;85.20
67188;DHT22;54117;53.532;49.426;2022-09-09T04:38:27;17.90;82.00
67188;DHT22;54117;53.532;49.426;2022-09-09T04:40:55;19.80;76.10
67188;DHT22;54117;53.532;49.426;2022-09-09T04:43:22;21.20;68.20
67188;DHT22;54117;53.532;49.426;2022-09-09T04:45:50;21.60;63.80
67188;DHT22;54117;53.532;49.426;2022-09-09T04:48:20;21.30;62.00
67188;DHT22;54117;53.532;49.426;2022-09-09T04:51:01;20.60;62.30
67188;DHT22;54117;53.532;49.426;2022-09-09T04:53:28;20.00;63.60
67188;DHT22;54117;53.532;49.426;2022-09-09T04:58:28;19.10;65.20
67188;DHT22;54117;53.532;49.426;2022-09-09T05:00:54;18.90;66.50
67188;DHT22;54117;53.532;49.426;2022-09-09T05:03:20;18.70;67.20
67188;DHT22;54117;53.532;49.426;2022-09-09T05:05:47;18.30;66.70
67188;DHT22;54117;53.532;49.426;2022-09-09T05:08:16;17.80;67.50
67188;DHT22;54117;53.532;49.426;2022-09-09T05:10:59;17.30;68.40
67188;DHT22;54117;53.532;49.426;2022-09-09T05:13:42;17.00;70.00
67188;DHT22;54117;53.532;49.426;2022-09-09T05:16:08;16.70;70.50
67188;DHT22;54117;53.532;49.426;2022-09-09T05:18:38;16.50;73.80
67188;DHT22;54117;53.532;49.426;2022-09-09T05:21:05;16.50;75.10
67188;DHT22;54117;53.532;49.426;2022-09-09T05:23:35;16.60;74.50
67188;DHT22;54117;53.532;49.426;2022-09-09T05:26:03;16.60;73.80
67188;DHT22;54117;53.532;49.426;2022-09-09T05:28:30;16.60;73.70
67188;DHT22;54117;53.532;49.426;2022-09-09T05:30:58;16.70;73.50
67188;DHT22;54117;53.532;49.426;2022-09-09T05:33:25;16.70;73.90
67188;DHT22;54117;53.532;49.426;2022-09-09T05:35:59;16.70;73.50
67188;DHT22;54117;53.532;49.426;2022-09-09T05:38:26;16.70;73.40
67188;DHT22;54117;53.532;49.426;2022-09-09T05:40:53;16.80;74.00
67188;DHT22;54117;53.532;49.426;2022-09-09T05:43:19;17.00;73.90
67188;DHT22;54117;53.532;49.426;2022-09-09T05:45:47;17.30;71.60
67188;DHT22;54117;53.532;49.426;2022-09-09T05:48:16;17.30;69.70
67188;DHT22;54117;53.532;49.426;2022-09-09T05:50:43;17.20;70.20
67188;DHT22;54117;53.532;49.426;2022-09-09T05:53:11;17.00;70.20
67188;DHT22;54117;53.532;49.426;2022-09-09T05:55:37;16.90;70.20
67188;DHT22;54117;53.532;49.426;2022-09-09T05:58:03;16.60;70.80
67188;DHT22;54117;53.532;49.426;2022-09-09T06:00:30;16.50;70.60
67188;DHT22;54117;53.532;49.426;2022-09-09T06:02:57;16.50;70.80
67188;DHT22;54117;53.532;49.426;2022-09-09T06:05:26;16.60;71.10
67188;DHT22;54117;53.532;49.426;2022-09-09T06:07:53;16.80;70.70
67188;DHT22;54117;53.532;49.426;2022-09-09T06:10:20;16.90;71.20
67188;DHT22;54117;53.532;49.426;2022-09-09T06:12:46;16.90;70.70
67188;DHT22;54117;53.532;49.426;2022-09-09T06:15:12;16.80;70.50
67188;DHT22;54117;53.532;49.426;2022-09-09T06:17:39;16.70;70.90
67188;DHT22;54117;53.532;49.426;2022-09-09T06:20:05;16.70;70.90
67188;DHT22;54117;53.532;49.426;2022-09-09T06:22:32;16.70;70.70
67188;DHT22;54117;53.532;49.426;2022-09-09T06:24:58;16.70;70.90
67188;DHT22;54117;53.532;49.426;2022-09-09T06:27:27;16.40;70.90
67188;DHT22;54117;53.532;49.426;2022-09-09T06:29:54;16.20;73.00
67188;DHT22;54117;53.532;49.426;2022-09-09T06:32:22;15.80;75.80
67188;DHT22;54117;53.532;49.426;2022-09-09T06:34:49;15.40;78.60
67188;DHT22;54117;53.532;49.426;2022-09-09T06:37:16;15.10;80.90
67188;DHT22;54117;53.532;49.426;2022-09-09T06:39:45;14.80;82.40
67188;DHT22;54117;53.532;49.426;2022-09-09T06:42:14;14.50;85.40
67188;DHT22;54117;53.532;49.426;2022-09-09T06:44:41;14.40;87.60
67188;DHT22;54117;53.532;49.426;2022-09-09T06:47:08;14.20;88.70
67188;DHT22;54117;53.532;49.426;2022-09-09T06:49:34;14.10;90.00
67188;DHT22;54117;53.532;49.426;2022-09-09T06:52:01;14.00;90.80
67188;DHT22;54117;53.532;49.426;2022-09-09T06:54:31;14.00;91.60
67188;DHT22;54117;53.532;49.426;2022-09-09T06:56:59;14.10;92.00
67188;DHT22;54117;53.532;49.426;2022-09-09T06:59:26;14.20;92.10
67188;DHT22;54117;53.532;49.426;2022-09-09T07:01:54;14.40;91.90
67188;DHT22;54117;53.532;49.426;2022-09-09T07:04:20;14.60;92.20
67188;DHT22;54117;53.532;49.426;2022-09-09T07:06:47;14.80;90.90
67188;DHT22;54117;53.532;49.426;2022-09-09T07:09:15;15.00;91.70
67188;DHT22;54117;53.532;49.426;2022-09-09T07:11:47;15.30;92.20
67188;DHT22;54117;53.532;49.426;2022-09-09T07:14:14;15.70;92.40
67188;DHT22;54117;53.532;49.426;2022-09-09T07:16:42;16.20;91.40
67188;DHT22;54117;53.532;49.426;2022-09-09T07:19:09;16.50;86.50
67188;DHT22;54117;53.532;49.426;2022-09-09T07:21:38;16.70;82.50
67188;DHT22;54117;53.532;49.426;2022-09-09T07:24:06;16.90;79.30
67188;DHT22;54117;53.532;49.426;2022-09-09T07:26:59;17.20;77.10
67188;DHT22;54117;53.532;49.426;2022-09-09T07:29:25;17.40;78.30
67188;DHT22;54117;53.532;49.426;2022-09-09T07:31:51;17.90;75.70
67188;DHT22;54117;53.532;49.426;2022-09-09T07:34:18;18.40;71.90
67188;DHT22;54117;53.532;49.426;2022-09-09T07:36:44;18.70;69.80
67188;DHT22;54117;53.532;49.426;2022-09-09T07:39:13;19.10;66.50
67188;DHT22;54117;53.532;49.426;2022-09-09T07:41:47;19.60;64.70
67188;DHT22;54117;53.532;49.426;2022-09-09T07:44:24;20.10;64.10
67188;DHT22;54117;53.532;49.426;2022-09-09T07:46:53;20.30;63.20
67188;DHT22;54117;53.532;49.426;2022-09-09T07:49:19;20.20;61.70
67188;DHT22;54117;53.532;49.426;2022-09-09T07:51:47;20.00;61.90
67188;DHT22;54117;53.532;49.426;2022-09-09T07:54:16;19.80;60.90
67188;DHT22;54117;53.532;49.426;2022-09-09T07:56:43;19.50;61.20
67188;DHT22;54117;53.532;49.426;2022-09-09T07:59:09;19.10;61.60
67188;DHT22;54117;53.532;49.426;2022-09-09T08:01:44;18.80;62.40
67188;DHT22;54117;53.532;49.426;2022-09-09T08:04:16;18.50;63.00
67188;DHT22;54117;53.532;49.426;2022-09-09T08:06:50;18.40;62.40
67188;DHT22;54117;53.532;49.426;2022-09-09T08:09:19;18.20;63.00
67188;DHT22;54117;53.532;49.426;2022-09-09T08:11:46;18.00;63.40
67188;DHT22;54117;53.532;49.426;2022-09-09T08:14:13;17.70;63.60
67188;DHT22;54117;53.532;49.426;2022-09-09T08:16:43;17.50;65.30
67188;DHT22;54117;53.532;49.426;2022-09-09T08:19:11;17.60;66.10
67188;DHT22;54117;53.532;49.426;2022-09-09T08:21:39;17.60;65.20
67188;DHT22;54117;53.532;49.426;2022-09-09T08:24:07;17.70;63.40
67188;DHT22;54117;53.532;49.426;2022-09-09T08:26:36;17.70;62.80
67188;DHT22;54117;53.532;49.426;2022-09-09T08:29:04;17.60;61.80
67188;DHT22;54117;53.532;49.426;2022-09-09T08:31:32;17.60;61.40
67188;DHT22;54117;53.532;49.426;2022-09-09T08:33:59;17.40;62.20
67188;DHT22;54117;53.532;49.426;2022-09-09T08:36:28;17.30;63.30
67188;DHT22;54117;53.532;49.426;2022-09-09T08:38:56;17.30;64.20
67188;DHT22;54117;53.532;49.426;2022-09-09T08:50:26;16.50;66.00
67188;DHT22;54117;53.532;49.426;2022-09-09T08:55:48;16.60;66.00
67188;DHT22;54117;53.532;49.426;2022-09-09T08:58:17;16.60;65.20
67188;DHT22;54117;53.532;49.426;2022-09-09T09:11:53;17.20;63.30
67188;DHT22;54117;53.532;49.426;2022-09-09T09:14:23;17.30;63.10
67188;DHT22;54117;53.532;49.426;2022-09-09T09:16:54;17.50;62.30
67188;DHT22;54117;53.532;49.426;2022-09-09T09:19:22;17.60;61.30
67188;DHT22;54117;53.532;49.426;2022-09-09T09:24:49;17.60;61.00
67188;DHT22;54117;53.532;49.426;2022-09-09T09:27:40;17.50;61.40
67188;DHT22;54117;53.532;49.426;2022-09-09T09:30:19;17.30;62.40
67188;DHT22;54117;53.532;49.426;2022-09-09T09:33:03;17.00;62.40
67188;DHT22;54117;53.532;49.426;2022-09-09T09:35:31;16.80;62.30
67188;DHT22;54117;53.532;49.426;2022-09-09T09:37:57;16.60;62.20
67188;DHT22;54117;53.532;49.426;2022-09-09T09:40:26;16.40;62.40
67188;DHT22;54117;53.532;49.426;2022-09-09T09:43:03;16.20;62.60
67188;DHT22;54117;53.532;49.426;2022-09-09T09:45:42;16.00;63.50
67188;DHT22;54117;53.532;49.426;2022-09-09T09:48:12;15.80;64.30
67188;DHT22;54117;53.532;49.426;2022-09-09T09:50:59;15.70;65.20
67188;DHT22;54117;53.532;49.426;2022-09-09T09:53:30;15.60;66.20
67188;DHT22;54117;53.532;49.426;2022-09-09T09:56:06;15.50;66.30
67188;DHT22;54117;53.532;49.426;2022-09-09T10:01:30;15.40;67.50
67188;DHT22;54117;53.532;49.426;2022-09-09T10:04:20;15.40;68.00
67188;DHT22;54117;53.532;49.426;2022-09-09T10:06:50;15.50;68.70
67188;DHT22;54117;53.532;49.426;2022-09-09T10:09:29;15.70;68.00
67188;DHT22;54117;53.532;49.426;2022-09-09T10:12:20;15.80;66.10
67188;DHT22;54117;53.532;49.426;2022-09-09T10:15:02;16.00;66.10
67188;DHT22;54117;53.532;49.426;2022-09-09T10:20:38;16.10;66.10
67188;DHT22;54117;53.532;49.426;2022-09-09T10:31:45;16.20;65.10
67188;DHT22;54117;53.532;49.426;2022-09-09T10:34:43;16.40;64.90
67188;DHT22;54117;53.532;49.426;2022-09-09T10:37:46;16.70;64.70
67188;DHT22;54117;53.532;49.426;2022-09-09T10:57:04;16.60;64.00
67188;DHT22;54117;53.532;49.426;2022-09-09T10:59:40;16.50;64.40
67188;DHT22;54117;53.532;49.426;2022-09-09T11:02:26;16.40;64.90
67188;DHT22;54117;53.532;49.426;2022-09-09T11:05:12;16.30;65.70
67188;DHT22;54117;53.532;49.426;2022-09-09T11:07:44;16.10;66.50
67188;DHT22;54117;53.532;49.426;2022-09-09T11:10:43;16.10;67.00
67188;DHT22;54117;53.532;49.426;2022-09-09T11:14:01;16.00;67.60
67188;DHT22;54117;53.532;49.426;2022-09-09T11:21:49;16.50;67.80
67188;DHT22;54117;53.532;49.426;2022-09-09T11:24:29;16.70;66.90
67188;DHT22;54117;53.532;49.426;2022-09-09T11:27:18;16.90;66.30
67188;DHT22;54117;53.532;49.426;2022-09-09T11:30:13;17.00;65.00
67188;DHT22;54117;53.532;49.426;2022-09-09T11:35:22;17.00;64.80
67188;DHT22;54117;53.532;49.426;2022-09-09T11:38:15;17.00;64.30
67188;DHT22;54117;53.532;49.426;2022-09-09T11:40:45;17.00;64.10
67188;DHT22;54117;53.532;49.426;2022-09-09T11:43:15;17.00;63.30
67188;DHT22;54117;53.532;49.426;2022-09-09T11:45:51;16.70;63.50
67188;DHT22;54117;53.532;49.426;2022-09-09T11:48:38;16.50;64.30
67188;DHT22;54117;53.532;49.426;2022-09-09T11:51:10;16.20;65.00
67188;DHT22;54117;53.532;49.426;2022-09-09T11:53:49;16.00;65.50
67188;DHT22;54117;53.532;49.426;2022-09-09T11:56:41;15.70;66.50
67188;DHT22;54117;53.532;49.426;2022-09-09T12:02:02;15.40;68.40
67188;DHT22;54117;53.532;49.426;2022-09-09T12:04:38;15.30;69.00
67188;DHT22;54117;53.532;49.426;2022-09-09T12:10:00;15.20;70.50
67188;DHT22;54117;53.532;49.426;2022-09-09T12:12:35;15.20;70.80
67188;DHT22;54117;53.532;49.426;2022-09-09T12:15:32;15.30;70.70
67188;DHT22;54117;53.532;49.426;2022-09-09T12:18:01;15.30;70.80
67188;DHT22;54117;53.532;49.426;2022-09-09T12:20:34;15.40;70.70
67188;DHT22;54117;53.532;49.426;2022-09-09T12:28:13;15.40;70.70
67188;DHT22;54117;53.532;49.426;2022-09-09T12:30:56;15.30;71.20
67188;DHT22;54117;53.532;49.426;2022-09-09T12:33:23;15.20;71.80
67188;DHT22;54117;53.532;49.426;2022-09-09T12:35:55;15.00;72.20
67188;DHT22;54117;53.532;49.426;2022-09-09T12:38:35;14.90;72.90
67188;DHT22;54117;53.532;49.426;2022-09-09T12:41:02;14.80;73.80
67188;DHT22;54117;53.532;49.426;2022-09-09T12:43:29;14.90;74.10
67188;DHT22;54117;53.532;49.426;2022-09-09T15:57:25;11.10;92.60
67188;DHT22;54117;53.532;49.426;2022-09-09T15:59:56;11.10;92.90
67188;DHT22;54117;53.532;49.426;2022-09-09T16:02:28;11.10;93.10
67188;DHT22;54117;53.532;49.426;2022-09-09T16:04:59;11.10;93.20
67188;DHT22;54117;53.532;49.426;2022-09-09T16:07:32;11.10;93.30
67188;DHT22;54117;53.532;49.426;2022-09-09T16:10:10;11.10;93.40
67188;DHT22;54117;53.532;49.426;2022-09-09T16:12:42;11.10;93.60
67188;DHT22;54117;53.532;49.426;2022-09-09T16:15:14;11.20;93.60
67188;DHT22;54117;53.532;49.426;2022-09-09T16:17:46;11.30;93.70
67188;DHT22;54117;53.532;49.426;2022-09-09T16:20:17;11.40;93.70
67188;DHT22;54117;53.532;49.426;2022-09-09T16:22:50;11.40;93.60
67188;DHT22;54117;53.532;49.426;2022-09-09T16:25:23;11.50;93.50
67188;DHT22;54117;53.532;49.426;2022-09-09T16:27:54;11.60;93.40
67188;DHT22;54117;53.532;49.426;2022-09-09T16:30:26;11.60;93.30
67188;DHT22;54117;53.532;49.426;2022-09-09T16:32:57;11.60;93.30
67188;DHT22;54117;53.532;49.426;2022-09-09T16:35:36;11.60;93.20
67188;DHT22;54117;53.532;49.426;2022-09-09T16:38:12;11.60;93.20
67188;DHT22;54117;53.532;49.426;2022-09-09T16:40:44;11.70;93.20
67188;DHT22;54117;53.532;49.426;2022-09-09T16:43:19;11.70;93.10
67188;DHT22;54117;53.532;49.426;2022-09-09T16:45:51;11.70;93.10
67188;DHT22;54117;53.532;49.426;2022-09-09T16:48:23;11.70;93.00
67188;DHT22;54117;53.532;49.426;2022-09-09T16:51:07;11.70;93.00
67188;DHT22;54117;53.532;49.426;2022-09-09T16:53:39;11.80;93.00
67188;DHT22;54117;53.532;49.426;2022-09-09T16:56:18;11.80;93.00
67188;DHT22;54117;53.532;49.426;2022-09-09T16:59:05;11.80;92.90
67188;DHT22;54117;53.532;49.426;2022-09-09T17:01:39;11.90;92.90
67188;DHT22;54117;53.532;49.426;2022-09-09T17:04:20;11.90;92.80
67188;DHT22;54117;53.532;49.426;2022-09-09T17:06:54;11.90;92.80
67188;DHT22;54117;53.532;49.426;2022-09-09T17:09:27;11.90;92.80
67188;DHT22;54117;53.532;49.426;2022-09-09T17:12:02;11.80;92.70
67188;DHT22;54117;53.532;49.426;2022-09-09T17:14:34;11.80;92.70
67188;DHT22;54117;53.532;49.426;2022-09-09T17:17:05;11.80;92.80
67188;DHT22;54117;53.532;49.426;2022-09-09T17:19:39;11.80;92.80
67188;DHT22;54117;53.532;49.426;2022-09-09T17:22:11;11.70;92.90
67188;DHT22;54117;53.532;49.426;2022-09-09T17:24:44;11.70;93.00
67188;DHT22;54117;53.532;49.426;2022-09-09T17:27:17;11.80;93.00
67188;DHT22;54117;53.532;49.426;2022-09-09T17:29:49;11.80;93.00
67188;DHT22;54117;53.532;49.426;2022-09-09T17:32:20;11.80;93.00
67188;DHT22;54117;53.532;49.426;2022-09-09T17:34:52;11.80;92.80
67188;DHT22;54117;53.532;49.426;2022-09-09T17:37:24;11.80;92.80
67188;DHT22;54117;53.532;49.426;2022-09-09T17:39:55;11.70;93.20
67188;DHT22;54117;53.532;49.426;2022-09-09T17:42:29;11.60;93.60
67188;DHT22;54117;53.532;49.426;2022-09-09T17:45:01;11.50;94.10
67188;DHT22;54117;53.532;49.426;2022-09-09T17:47:32;11.40;94.40
67188;DHT22;54117;53.532;49.426;2022-09-09T17:50:04;11.40;94.80
67188;DHT22;54117;53.532;49.426;2022-09-09T17:52:38;11.30;95.10
67188;DHT22;54117;53.532;49.426;2022-09-09T17:55:09;11.20;95.20
67188;DHT22;54117;53.532;49.426;2022-09-09T17:57:41;11.10;95.60
67188;DHT22;54117;53.532;49.426;2022-09-09T18:00:16;11.00;96.00
67188;DHT22;54117;53.532;49.426;2022-09-09T18:02:48;10.90;96.20
67188;DHT22;54117;53.532;49.426;2022-09-09T18:05:19;10.90;96.50
67188;DHT22;54117;53.532;49.426;2022-09-09T18:07:51;10.90;96.80
67188;DHT22;54117;53.532;49.426;2022-09-09T18:10:23;10.90;96.90
67188;DHT22;54117;53.532;49.426;2022-09-09T18:12:55;10.90;97.00
67188;DHT22;54117;53.532;49.426;2022-09-09T18:15:28;10.90;97.00
67188;DHT22;54117;53.532;49.426;2022-09-09T18:18:02;11.00;97.20
67188;DHT22;54117;53.532;49.426;2022-09-09T18:20:37;11.00;97.20
67188;DHT22;54117;53.532;49.426;2022-09-09T18:23:08;11.00;97.20
67188;DHT22;54117;53.532;49.426;2022-09-09T18:25:45;10.90;97.20
67188;DHT22;54117;53.532;49.426;2022-09-09T18:28:17;11.00;97.30
67188;DHT22;54117;53.532;49.426;2022-09-09T18:30:50;11.00;97.20
67188;DHT22;54117;53.532;49.426;2022-09-09T18:33:23;10.90;97.30
67188;DHT22;54117;53.532;49.426;2022-09-09T18:35:55;11.00;97.30
67188;DHT22;54117;53.532;49.426;2022-09-09T18:38:26;11.00;97.50
67188;DHT22;54117;53.532;49.426;2022-09-09T18:40:58;11.00;97.40
67188;DHT22;54117;53.532;49.426;2022-09-09T18:43:31;11.00;97.40
67188;DHT22;54117;53.532;49.426;2022-09-09T18:46:03;11.00;97.40
67188;DHT22;54117;53.532;49.426;2022-09-09T18:48:35;11.00;97.40
67188;DHT22;54117;53.532;49.426;2022-09-09T18:51:09;11.00;97.40
67188;DHT22;54117;53.532;49.426;2022-09-09T18:53:40;11.10;97.40
67188;DHT22;54117;53.532;49.426;2022-09-09T18:56:12;11.00;97.60
67188;DHT22;54117;53.532;49.426;2022-09-09T18:58:44;11.00;97.60
67188;DHT22;54117;53.532;49.426;2022-09-09T19:01:16;11.00;97.50
67188;DHT22;54117;53.532;49.426;2022-09-09T19:03:47;11.00;97.30
67188;DHT22;54117;53.532;49.426;2022-09-09T19:06:21;11.10;97.10
67188;DHT22;54117;53.532;49.426;2022-09-09T19:08:56;11.10;96.80
67188;DHT22;54117;53.532;49.426;2022-09-09T19:11:29;11.10;96.60
67188;DHT22;54117;53.532;49.426;2022-09-09T19:14:02;11.10;96.30
67188;DHT22;54117;53.532;49.426;2022-09-09T19:16:34;11.10;96.10
67188;DHT22;54117;53.532;49.426;2022-09-09T19:19:10;11.10;95.90
67188;DHT22;54117;53.532;49.426;2022-09-09T19:21:42;11.10;95.80
67188;DHT22;54117;53.532;49.426;2022-09-09T19:24:17;11.10;95.70
67188;DHT22;54117;53.532;49.426;2022-09-09T19:26:52;11.00;96.00
67188;DHT22;54117;53.532;49.426;2022-09-09T19:29:36;10.90;95.90
67188;DHT22;54117;53.532;49.426;2022-09-09T19:32:09;10.90;96.10
67188;DHT22;54117;53.532;49.426;2022-09-09T19:34:41;10.90;96.30
67188;DHT22;54117;53.532;49.426;2022-09-09T19:37:14;10.90;96.30
67188;DHT22;54117;53.532;49.426;2022-09-09T19:39:46;10.90;96.40
67188;DHT22;54117;53.532;49.426;2022-09-09T19:42:18;10.90;96.30
67188;DHT22;54117;53.532;49.426;2022-09-09T19:44:49;10.90;96.20
67188;DHT22;54117;53.532;49.426;2022-09-09T19:47:21;10.90;96.10
67188;DHT22;54117;53.532;49.426;2022-09-09T19:49:58;10.90;96.00
67188;DHT22;54117;53.532;49.426;2022-09-09T19:52:30;10.90;95.90
67188;DHT22;54117;53.532;49.426;2022-09-09T19:55:02;10.90;95.80
67188;DHT22;54117;53.532;49.426;2022-09-09T19:57:33;11.00;95.70
67188;DHT22;54117;53.532;49.426;2022-09-09T20:00:06;11.00;95.60
67188;DHT22;54117;53.532;49.426;2022-09-09T20:02:38;11.00;95.50
67188;DHT22;54117;53.532;49.426;2022-09-09T20:05:10;10.90;95.50
67188;DHT22;54117;53.532;49.426;2022-09-09T20:07:43;11.00;95.40
67188;DHT22;54117;53.532;49.426;2022-09-09T20:10:15;11.00;95.30
67188;DHT22;54117;53.532;49.426;2022-09-09T20:12:47;11.00;95.20
67188;DHT22;54117;53.532;49.426;2022-09-09T20:15:18;11.00;95.20
67188;DHT22;54117;53.532;49.426;2022-09-09T20:17:49;11.00;95.00
67188;DHT22;54117;53.532;49.426;2022-09-09T20:20:21;11.10;94.90
67188;DHT22;54117;53.532;49.426;2022-09-09T20:22:52;11.10;94.80
67188;DHT22;54117;53.532;49.426;2022-09-09T20:25:24;11.10;94.60
67188;DHT22;54117;53.532;49.426;2022-09-09T20:27:55;11.10;94.30
67188;DHT22;54117;53.532;49.426;2022-09-09T20:30:27;11.10;94.20
67188;DHT22;54117;53.532;49.426;2022-09-09T20:32:58;11.10;94.00
67188;DHT22;54117;53.532;49.426;2022-09-09T20:35:30;11.20;93.80
67188;DHT22;54117;53.532;49.426;2022-09-09T20:38:02;11.20;93.70
67188;DHT22;54117;53.532;49.426;2022-09-09T20:40:38;11.20;93.60
67188;DHT22;54117;53.532;49.426;2022-09-09T20:43:11;11.20;93.40
67188;DHT22;54117;53.532;49.426;2022-09-09T20:45:43;11.20;93.10
67188;DHT22;54117;53.532;49.426;2022-09-09T20:48:14;11.30;93.00